Time;durP1;ratioP1;P1;durP2;ratioP2;P2;SDS_P1;SDS_P2;PMS_P1;PMS_P2;Temp;Humidity;BMP_temperature;BMP_pressure;BME280_temperature;BME280_humidity;BME280_pressure;Samples;Min_cycle;Max_cycle;Signal;HPM_P1;HPM_P2
2021/09/12 00:00:05;;;;;;;19.05;17.10;;;;;;;;;;5076703;28;20467;-76
2021/09/12 00:02:31;;;;;;;19.65;17.55;;;;;;;;;;5077352;28;20450;-76
2021/09/12 00:04:57;;;;;;;20.55;16.75;;;;;;;;;;5076973;28;20025;-76
2021/09/12 00:07:23;;;;;;;19.88;17.83;;;;;;;;;;5076791;28;20028;-76
2021/09/12 00:09:50;;;;;;;19.48;17.58;;;;;;;;;;5076213;28;20466;-77
2021/09/12 00:12:16;;;;;;;21.50;16.63;;;;;;;;;;5076536;28;20024;-76
2021/09/12 00:14:42;;;;;;;18.58;16.38;;;;;;;;;;5077079;28;20028;-76
2021/09/12 00:17:08;;;;;;;17.52;15.80;;;;;;;;;;5076825;28;20024;-76
2021/09/12 00:19:34;;;;;;;19.85;16.35;;;;;;;;;;5076355;28;20493;-76
2021/09/12 00:22:00;;;;;;;19.67;17.77;;;;;;;;;;5076066;28;20028;-76
2021/09/12 00:24:26;;;;;;;20.38;18.25;;;;;;;;;;5076206;28;20493;-76
2021/09/12 00:26:52;;;;;;;17.98;16.08;;;;;;;;;;5076030;28;20108;-76
2021/09/12 00:29:20;;;;;;;17.88;15.63;;;;;;;;;;5076599;28;20029;-76
2021/09/12 00:31:46;;;;;;;19.50;17.52;;;;;;;;;;5076140;28;20108;-77
2021/09/12 00:34:12;;;;;;;17.88;16.08;;;;;;;;;;5076262;28;20065;-77
2021/09/12 00:36:38;;;;;;;19.50;17.60;;;;;;;;;;5076268;28;20021;-76
2021/09/12 00:39:04;;;;;;;19.15;16.38;;;;;;;;;;5075973;28;20166;-77
2021/09/12 00:41:34;;;;;;;18.58;16.58;;;;;;;;;;5075227;28;20031;-77
2021/09/12 00:44:01;;;;;;;16.95;14.80;;;;;;;;;;5075218;28;20025;-77
2021/09/12 00:46:27;;;;;;;22.45;16.75;;;;;;;;;;5076014;28;20020;-76
2021/09/12 00:48:53;;;;;;;16.77;15.15;;;;;;;;;;5075753;28;20025;-76
2021/09/12 00:51:19;;;;;;;18.75;15.30;;;;;;;;;;5076011;28;20497;-76
2021/09/12 00:53:45;;;;;;;21.08;18.27;;;;;;;;;;5075736;28;20116;-77
2021/09/12 00:56:11;;;;;;;18.80;16.23;;;;;;;;;;5076332;28;20102;-77
2021/09/12 00:58:37;;;;;;;17.25;15.30;;;;;;;;;;5075484;28;20485;-76
2021/09/12 01:01:03;;;;;;;19.92;16.95;;;;;;;;;;5076081;28;20024;-76
2021/09/12 01:03:29;;;;;;;17.25;15.35;;;;;;;;;;5075581;28;20023;-76
2021/09/12 01:05:55;;;;;;;19.65;15.85;;;;;;;;;;5075454;28;20553;-76
2021/09/12 01:08:22;;;;;;;22.80;15.73;;;;;;;;;;5075807;28;20378;-76
2021/09/12 01:10:48;;;;;;;17.33;15.48;;;;;;;;;;5075361;28;20489;-76
2021/09/12 01:13:14;;;;;;;21.42;18.08;;;;;;;;;;5075357;28;20061;-76
2021/09/12 01:15:40;;;;;;;20.10;17.33;;;;;;;;;;5075643;28;20047;-76
2021/09/12 01:18:07;;;;;;;17.10;14.88;;;;;;;;;;5075135;28;20125;-76
2021/09/12 01:20:33;;;;;;;18.67;16.77;;;;;;;;;;5075486;28;20574;-76
2021/09/12 01:22:59;;;;;;;16.88;14.85;;;;;;;;;;5075206;28;20025;-76
2021/09/12 01:25:25;;;;;;;17.92;16.23;;;;;;;;;;5074882;28;20048;-76
2021/09/12 01:27:51;;;;;;;19.58;16.55;;;;;;;;;;5074985;28;20025;-76
2021/09/12 01:30:17;;;;;;;19.77;15.27;;;;;;;;;;5075664;28;20428;-76
2021/09/12 01:32:43;;;;;;;23.95;15.25;;;;;;;;;;5075403;28;20025;-76
2021/09/12 01:35:10;;;;;;;18.40;16.52;;;;;;;;;;5075128;28;20021;-76
2021/09/12 01:37:36;;;;;;;17.73;16.08;;;;;;;;;;5074805;28;20036;-76
2021/09/12 01:40:02;;;;;;;16.55;14.85;;;;;;;;;;5074499;28;20037;-76
2021/09/12 01:42:28;;;;;;;16.63;14.88;;;;;;;;;;5075022;28;20020;-76
2021/09/12 01:44:54;;;;;;;18.38;14.68;;;;;;;;;;5074952;28;20109;-76
2021/09/12 01:47:20;;;;;;;19.70;14.90;;;;;;;;;;5071793;28;20448;-78
2021/09/12 01:49:46;;;;;;;19.63;14.80;;;;;;;;;;5074185;28;20401;-77
2021/09/12 01:52:12;;;;;;;17.20;14.65;;;;;;;;;;5074903;28;20098;-74
2021/09/12 01:54:38;;;;;;;18.27;16.20;;;;;;;;;;5074151;28;20040;-74
2021/09/12 01:57:05;;;;;;;15.70;13.88;;;;;;;;;;5074799;28;20431;-74
2021/09/12 01:59:31;;;;;;;17.88;14.77;;;;;;;;;;5074966;28;20036;-74
2021/09/12 02:01:57;;;;;;;16.85;14.88;;;;;;;;;;5075121;28;20063;-77
2021/09/12 02:04:23;;;;;;;17.42;15.60;;;;;;;;;;5074878;28;20062;-75
2021/09/12 02:06:49;;;;;;;18.35;15.23;;;;;;;;;;5075057;28;20025;-76
2021/09/12 02:09:15;;;;;;;16.85;14.55;;;;;;;;;;5074793;28;20078;-78
2021/09/12 02:11:41;;;;;;;15.90;14.38;;;;;;;;;;5075821;28;20043;-77
2021/09/12 02:14:07;;;;;;;18.33;15.32;;;;;;;;;;5075639;28;20029;-77
2021/09/12 02:16:33;;;;;;;17.85;15.90;;;;;;;;;;5075141;28;20021;-76
2021/09/12 02:18:59;;;;;;;16.55;15.13;;;;;;;;;;5075622;28;20040;-74
2021/09/12 02:21:25;;;;;;;15.77;14.15;;;;;;;;;;5074930;28;20614;-74
2021/09/12 02:23:52;;;;;;;16.20;14.55;;;;;;;;;;5074333;28;20028;-77
2021/09/12 02:26:18;;;;;;;16.70;14.77;;;;;;;;;;5073233;28;20023;-77
2021/09/12 02:28:44;;;;;;;16.25;13.23;;;;;;;;;;5072468;28;20431;-77
2021/09/12 02:31:10;;;;;;;19.95;14.98;;;;;;;;;;5073888;28;20458;-77
2021/09/12 02:33:36;;;;;;;16.88;14.23;;;;;;;;;;5074047;28;20082;-76
2021/09/12 02:36:02;;;;;;;15.80;14.05;;;;;;;;;;5073813;28;20036;-77
2021/09/12 02:38:29;;;;;;;16.35;14.75;;;;;;;;;;5073428;28;20028;-77
2021/09/12 02:40:59;;;;;;;15.75;13.60;;;;;;;;;;5073629;28;20485;-77
2021/09/12 02:43:25;;;;;;;15.25;13.75;;;;;;;;;;5073702;28;20031;-77
2021/09/12 02:45:51;;;;;;;15.20;13.65;;;;;;;;;;5073440;28;20477;-77
2021/09/12 02:48:17;;;;;;;21.60;14.32;;;;;;;;;;5073626;28;20037;-77
2021/09/12 02:50:43;;;;;;;16.67;14.95;;;;;;;;;;5073515;28;20050;-76
2021/09/12 02:53:09;;;;;;;14.15;12.70;;;;;;;;;;5073342;28;20487;-77
2021/09/12 02:55:35;;;;;;;17.95;14.25;;;;;;;;;;5073784;28;20044;-77
2021/09/12 02:58:01;;;;;;;15.75;14.07;;;;;;;;;;5073163;28;20037;-76
2021/09/12 03:00:27;;;;;;;15.98;13.93;;;;;;;;;;5073699;28;20029;-77
2021/09/12 03:02:53;;;;;;;15.52;13.85;;;;;;;;;;5073655;28;20024;-76
2021/09/12 03:05:19;;;;;;;15.13;13.63;;;;;;;;;;5072784;28;20033;-77
2021/09/12 03:07:46;;;;;;;15.77;14.15;;;;;;;;;;5073137;28;20024;-77
2021/09/12 03:10:12;;;;;;;13.68;12.30;;;;;;;;;;5073490;28;20470;-77
2021/09/12 03:12:38;;;;;;;14.60;13.18;;;;;;;;;;5073360;28;20116;-76
2021/09/12 03:15:04;;;;;;;13.93;12.63;;;;;;;;;;5073743;28;20032;-77
2021/09/12 03:17:30;;;;;;;14.27;12.77;;;;;;;;;;5073408;28;20374;-77
2021/09/12 03:19:56;;;;;;;17.73;14.05;;;;;;;;;;5073256;28;20485;-76
2021/09/12 03:22:22;;;;;;;14.10;12.65;;;;;;;;;;5073041;28;20031;-76
2021/09/12 03:24:48;;;;;;;16.58;12.32;;;;;;;;;;5073378;28;20379;-77
2021/09/12 03:27:15;;;;;;;13.35;12.07;;;;;;;;;;5073626;28;20056;-76
2021/09/12 03:29:41;;;;;;;14.10;12.57;;;;;;;;;;5073255;28;20436;-76
2021/09/12 03:32:07;;;;;;;15.40;12.60;;;;;;;;;;5073091;28;20036;-77
2021/09/12 03:34:33;;;;;;;14.45;13.05;;;;;;;;;;5073136;28;20025;-76
2021/09/12 03:36:59;;;;;;;17.13;14.13;;;;;;;;;;5072867;28;20169;-77
2021/09/12 03:39:25;;;;;;;15.63;14.00;;;;;;;;;;5073244;28;20032;-77
2021/09/12 03:41:51;;;;;;;13.82;12.43;;;;;;;;;;5072927;28;20111;-78
2021/09/12 03:44:17;;;;;;;14.60;13.10;;;;;;;;;;5073199;28;20099;-77
2021/09/12 03:46:43;;;;;;;15.23;13.73;;;;;;;;;;5072991;28;20020;-77
2021/09/12 03:49:09;;;;;;;15.75;14.10;;;;;;;;;;5073022;28;20074;-77
2021/09/12 03:51:35;;;;;;;14.40;12.90;;;;;;;;;;5073011;28;20027;-77
2021/09/12 03:54:01;;;;;;;18.00;14.45;;;;;;;;;;5072847;28;20077;-77
2021/09/12 03:56:28;;;;;;;14.85;13.32;;;;;;;;;;5072913;28;20068;-77
2021/09/12 03:58:54;;;;;;;15.07;13.57;;;;;;;;;;5073291;28;20075;-77
2021/09/12 04:01:20;;;;;;;14.50;13.02;;;;;;;;;;5073350;28;20596;-78
2021/09/12 04:03:46;;;;;;;15.80;14.20;;;;;;;;;;5072885;28;20078;-77
2021/09/12 04:06:12;;;;;;;17.30;15.00;;;;;;;;;;5072969;28;20378;-77
2021/09/12 04:08:38;;;;;;;20.15;14.90;;;;;;;;;;5072921;28;20029;-77
2021/09/12 04:11:04;;;;;;;16.60;13.30;;;;;;;;;;5073263;28;20029;-77
2021/09/12 04:13:30;;;;;;;16.30;13.25;;;;;;;;;;5073032;28;20071;-77
2021/09/12 04:15:56;;;;;;;15.57;13.90;;;;;;;;;;5072610;28;20023;-77
2021/09/12 04:18:23;;;;;;;22.60;14.63;;;;;;;;;;5076419;28;20394;-78
2021/09/12 04:20:49;;;;;;;15.60;13.82;;;;;;;;;;5076402;28;20050;-77
2021/09/12 04:23:15;;;;;;;15.65;14.07;;;;;;;;;;5076101;28;20021;-77
2021/09/12 04:25:41;;;;;;;18.00;14.38;;;;;;;;;;5076384;28;20048;-77
2021/09/12 04:28:07;;;;;;;17.67;13.32;;;;;;;;;;5075844;28;20359;-76
2021/09/12 04:30:33;;;;;;;16.48;14.65;;;;;;;;;;5076544;28;20484;-76
2021/09/12 04:32:59;;;;;;;18.85;14.43;;;;;;;;;;5076088;28;20020;-77
2021/09/12 04:35:25;;;;;;;17.90;13.60;;;;;;;;;;5076185;28;20048;-77
2021/09/12 04:37:51;;;;;;;17.95;14.20;;;;;;;;;;5075589;28;20040;-76
2021/09/12 04:40:17;;;;;;;15.43;13.75;;;;;;;;;;5076214;28;20047;-77
2021/09/12 04:42:43;;;;;;;16.05;14.48;;;;;;;;;;5076004;28;20021;-76
2021/09/12 04:45:10;;;;;;;15.38;13.82;;;;;;;;;;5076099;28;20044;-76
2021/09/12 04:47:36;;;;;;;14.93;13.40;;;;;;;;;;5076265;28;20099;-76
2021/09/12 04:50:02;;;;;;;16.25;14.55;;;;;;;;;;5075672;28;20493;-77
2021/09/12 04:52:28;;;;;;;14.60;13.13;;;;;;;;;;5075908;28;20063;-77
2021/09/12 04:54:54;;;;;;;15.13;13.52;;;;;;;;;;5075723;28;20052;-76
2021/09/12 04:57:20;;;;;;;16.17;13.05;;;;;;;;;;5075815;28;20606;-76
2021/09/12 04:59:46;;;;;;;14.98;13.43;;;;;;;;;;5075562;28;20035;-77
2021/09/12 05:02:12;;;;;;;15.85;14.27;;;;;;;;;;5076002;28;20032;-76
2021/09/12 05:04:38;;;;;;;17.38;12.85;;;;;;;;;;5071872;28;20386;-78
2021/09/12 05:07:04;;;;;;;16.08;13.45;;;;;;;;;;5076497;28;20029;-78
2021/09/12 05:09:30;;;;;;;16.08;13.55;;;;;;;;;;5076518;28;20422;-78
2021/09/12 05:11:56;;;;;;;16.02;14.18;;;;;;;;;;5075998;28;20028;-79
2021/09/12 05:14:25;;;;;;;13.95;11.95;;;;;;;;;;5072585;28;20036;-80
2021/09/12 05:16:51;;;;;;;20.08;13.90;;;;;;;;;;5076514;28;20047;-80
2021/09/12 05:19:17;;;;;;;19.35;12.65;;;;;;;;;;5076916;28;20052;-79
2021/09/12 05:21:43;;;;;;;17.77;13.82;;;;;;;;;;5076208;28;20017;-79
2021/09/12 05:24:09;;;;;;;13.88;12.48;;;;;;;;;;5074875;28;20062;-78
2021/09/12 05:26:35;;;;;;;14.45;12.90;;;;;;;;;;5076162;28;20105;-80
2021/09/12 05:29:01;;;;;;;13.10;11.77;;;;;;;;;;5075638;28;20027;-80
2021/09/12 05:31:28;;;;;;;15.50;13.70;;;;;;;;;;5076610;28;20404;-79
2021/09/12 05:33:54;;;;;;;16.15;12.65;;;;;;;;;;5075112;28;20111;-80
2021/09/12 05:36:20;;;;;;;14.55;13.13;;;;;;;;;;5075593;28;20066;-79
2021/09/12 05:38:46;;;;;;;17.15;12.63;;;;;;;;;;5075854;28;20125;-83
2021/09/12 05:41:12;;;;;;;15.77;13.60;;;;;;;;;;5076111;28;20032;-83
2021/09/12 05:43:38;;;;;;;16.17;13.63;;;;;;;;;;5075353;28;20486;-80
2021/09/12 05:46:04;;;;;;;14.27;12.23;;;;;;;;;;5076151;28;20054;-77
2021/09/12 05:48:30;;;;;;;13.10;11.80;;;;;;;;;;5076590;28;20028;-77
2021/09/12 05:50:56;;;;;;;14.23;12.73;;;;;;;;;;5076866;28;20412;-78
2021/09/12 05:53:24;;;;;;;15.15;13.70;;;;;;;;;;5076704;28;20036;-82
2021/09/12 05:55:50;;;;;;;12.95;11.85;;;;;;;;;;5075653;28;20528;-84
2021/09/12 05:58:16;;;;;;;16.52;13.50;;;;;;;;;;5077022;28;20163;-83
2021/09/12 06:00:42;;;;;;;13.98;12.52;;;;;;;;;;5075347;28;20036;-78
2021/09/12 06:03:09;;;;;;;13.10;11.82;;;;;;;;;;5076713;28;20017;-78
2021/09/12 06:05:35;;;;;;;13.95;12.65;;;;;;;;;;5074079;28;20032;-81
2021/09/12 06:08:01;;;;;;;13.68;12.10;;;;;;;;;;5075459;28;20485;-80
2021/09/12 06:10:27;;;;;;;15.25;13.65;;;;;;;;;;5076123;28;20466;-80
2021/09/12 06:12:53;;;;;;;13.75;12.45;;;;;;;;;;5075508;28;20023;-83
2021/09/12 06:15:19;;;;;;;14.40;12.90;;;;;;;;;;5073383;28;20051;-83
2021/09/12 06:17:45;;;;;;;13.70;12.38;;;;;;;;;;5074609;28;20146;-79
2021/09/12 06:20:12;;;;;;;13.40;12.20;;;;;;;;;;5074834;28;20486;-80
2021/09/12 06:22:45;;;;;;;12.30;11.07;;;;;;;;;;5075148;28;20028;-90
2021/09/12 06:25:11;;;;;;;20.67;12.98;;;;;;;;;;5074003;28;20064;-78
2021/09/12 06:27:38;;;;;;;13.48;12.18;;;;;;;;;;5075041;28;20442;-78
2021/09/12 06:30:04;;;;;;;13.05;11.57;;;;;;;;;;5074857;28;20036;-79
2021/09/12 06:32:30;;;;;;;12.77;11.50;;;;;;;;;;5073813;28;20041;-79
2021/09/12 06:34:56;;;;;;;13.50;12.10;;;;;;;;;;5073991;28;20025;-76
2021/09/12 06:37:23;;;;;;;27.80;12.57;;;;;;;;;;5074165;28;20143;-78
2021/09/12 06:39:49;;;;;;;13.85;11.35;;;;;;;;;;5072353;28;20492;-79
2021/09/12 06:42:15;;;;;;;13.75;12.30;;;;;;;;;;5072921;28;20025;-84
2021/09/12 06:44:41;;;;;;;13.05;11.75;;;;;;;;;;5073752;28;20052;-79
2021/09/12 06:47:07;;;;;;;21.85;17.45;;;;;;;;;;5073557;28;20375;-84
2021/09/12 06:49:33;;;;;;;32.60;27.75;;;;;;;;;;5073300;28;20025;-82
2021/09/12 06:52:00;;;;;;;40.03;27.70;;;;;;;;;;5073270;28;20031;-78
2021/09/12 06:54:27;;;;;;;20.33;16.98;;;;;;;;;;5072797;28;20098;-79
2021/09/12 06:56:54;;;;;;;26.70;24.08;;;;;;;;;;5072284;28;20031;-79
2021/09/12 06:59:20;;;;;;;17.52;15.93;;;;;;;;;;5072779;28;20451;-82
2021/09/12 07:01:46;;;;;;;23.23;20.77;;;;;;;;;;5073861;28;20036;-81
2021/09/12 07:04:12;;;;;;;23.83;21.40;;;;;;;;;;5073636;28;20097;-81
2021/09/12 07:06:38;;;;;;;23.08;20.88;;;;;;;;;;5071042;28;20382;-83
2021/09/12 07:09:04;;;;;;;34.33;22.13;;;;;;;;;;5073303;28;20017;-77
2021/09/12 07:11:30;;;;;;;23.23;19.30;;;;;;;;;;5073846;28;20056;-80
2021/09/12 07:13:56;;;;;;;29.02;18.77;;;;;;;;;;5074008;28;20039;-75
2021/09/12 07:16:22;;;;;;;20.63;18.65;;;;;;;;;;5073627;28;20418;-76
2021/09/12 07:18:49;;;;;;;20.00;17.40;;;;;;;;;;5073315;28;20028;-79
2021/09/12 07:21:15;;;;;;;25.45;18.20;;;;;;;;;;5073868;28;20032;-74
2021/09/12 07:23:41;;;;;;;19.95;18.05;;;;;;;;;;5073410;28;20031;-76
2021/09/12 07:26:07;;;;;;;19.05;17.33;;;;;;;;;;5073433;28;20466;-78
2021/09/12 07:28:33;;;;;;;17.17;15.38;;;;;;;;;;5073517;28;20110;-78
2021/09/12 07:30:59;;;;;;;19.73;16.25;;;;;;;;;;5073398;28;20025;-75
2021/09/12 07:33:25;;;;;;;19.67;16.65;;;;;;;;;;5073445;28;20036;-78
2021/09/12 07:35:51;;;;;;;17.20;15.52;;;;;;;;;;5072822;28;20025;-77
2021/09/12 07:38:17;;;;;;;18.27;16.35;;;;;;;;;;5073248;28;20086;-76
2021/09/12 07:40:43;;;;;;;17.25;15.45;;;;;;;;;;5072392;28;20362;-78
2021/09/12 07:43:09;;;;;;;19.13;14.93;;;;;;;;;;5072480;28;20060;-79
2021/09/12 07:45:35;;;;;;;15.82;13.95;;;;;;;;;;5073322;28;20022;-79
2021/09/12 07:48:02;;;;;;;17.35;15.65;;;;;;;;;;5073023;28;20035;-77
2021/09/12 07:50:28;;;;;;;14.95;13.55;;;;;;;;;;5072828;28;20376;-82
2021/09/12 07:52:54;;;;;;;14.43;12.90;;;;;;;;;;5075007;28;20032;-77
2021/09/12 07:55:20;;;;;;;15.73;13.85;;;;;;;;;;5077817;28;20072;-82
2021/09/12 07:57:46;;;;;;;17.10;15.32;;;;;;;;;;5077704;28;20028;-78
2021/09/12 08:00:12;;;;;;;15.05;13.57;;;;;;;;;;5078298;28;20501;-83
2021/09/12 08:02:39;;;;;;;15.65;14.07;;;;;;;;;;5077465;28;20033;-78
2021/09/12 08:05:05;;;;;;;14.60;13.27;;;;;;;;;;5077452;28;20043;-79
2021/09/12 08:07:31;;;;;;;13.43;12.32;;;;;;;;;;5077994;28;20068;-82
2021/09/12 08:09:59;;;;;;;14.45;13.20;;;;;;;;;;5077730;28;20024;-84
2021/09/12 08:12:25;;;;;;;15.57;13.95;;;;;;;;;;5077849;28;20020;-79
2021/09/12 08:14:51;;;;;;;22.15;14.50;;;;;;;;;;5077187;28;20017;-82
2021/09/12 08:17:17;;;;;;;32.55;15.27;;;;;;;;;;5077164;28;20020;-81
2021/09/12 08:19:43;;;;;;;19.75;12.75;;;;;;;;;;5075369;28;20025;-80
2021/09/12 08:22:09;;;;;;;19.40;12.88;;;;;;;;;;5075577;28;20025;-77
2021/09/12 08:24:35;;;;;;;36.10;13.70;;;;;;;;;;5077186;28;20017;-80
2021/09/12 08:27:01;;;;;;;13.73;12.10;;;;;;;;;;5080242;28;20466;-79
2021/09/12 08:29:27;;;;;;;15.35;13.73;;;;;;;;;;5078450;28;20039;-82
2021/09/12 08:31:55;;;;;;;15.75;13.05;;;;;;;;;;5077967;28;20032;-84
2021/09/12 08:34:24;;;;;;;20.98;13.10;;;;;;;;;;5078847;28;20029;-85
2021/09/12 08:36:50;;;;;;;18.05;15.45;;;;;;;;;;5077845;28;20028;-85
2021/09/12 08:39:16;;;;;;;22.40;13.77;;;;;;;;;;5079529;28;20033;-80
2021/09/12 08:41:42;;;;;;;15.50;12.73;;;;;;;;;;5076829;28;20058;-78
2021/09/12 08:44:08;;;;;;;18.00;12.40;;;;;;;;;;5075921;28;20020;-76
2021/09/12 08:46:34;;;;;;;19.80;10.82;;;;;;;;;;5075669;28;20032;-72
2021/09/12 08:49:00;;;;;;;12.52;10.65;;;;;;;;;;5077060;28;20107;-75
2021/09/12 08:51:27;;;;;;;11.75;10.57;;;;;;;;;;5075788;28;20078;-77
2021/09/12 08:53:53;;;;;;;10.68;9.68;;;;;;;;;;5076233;28;20452;-77
2021/09/12 08:56:19;;;;;;;11.55;10.35;;;;;;;;;;5075224;28;20056;-77
2021/09/12 08:58:45;;;;;;;14.60;10.90;;;;;;;;;;5076616;28;20117;-79
2021/09/12 09:01:11;;;;;;;13.85;10.02;;;;;;;;;;5077753;28;20431;-80
2021/09/12 09:03:38;;;;;;;16.10;10.30;;;;;;;;;;5076578;28;20466;-77
2021/09/12 09:06:19;;;;;;;18.52;10.18;;;;;;;;;;5078028;28;20032;-81
2021/09/12 09:09:00;;;;;;;11.13;9.93;;;;;;;;;;5079170;28;20025;-83
2021/09/12 09:11:29;;;;;;;12.50;10.10;;;;;;;;;;5078289;28;20251;-80
2021/09/12 09:13:55;;;;;;;12.77;10.60;;;;;;;;;;5078217;28;20430;-79
2021/09/12 09:16:28;;;;;;;12.07;10.25;;;;;;;;;;5078688;28;20031;-85
2021/09/12 09:19:02;;;;;;;10.50;9.20;;;;;;;;;;5074470;28;20040;-75
2021/09/12 09:21:30;;;;;;;12.48;9.82;;;;;;;;;;5076597;28;20017;-77
2021/09/12 09:24:13;;;;;;;24.67;9.70;;;;;;;;;;5075744;28;20020;-77
2021/09/12 09:26:40;;;;;;;10.30;9.30;;;;;;;;;;5077030;28;20023;-82
2021/09/12 09:29:06;;;;;;;11.68;9.05;;;;;;;;;;5076734;28;20024;-77
2021/09/12 09:31:32;;;;;;;14.48;10.40;;;;;;;;;;5075618;28;20058;-77
2021/09/12 09:34:12;;;;;;;11.73;10.32;;;;;;;;;;5076562;28;20474;-86
2021/09/12 09:36:38;;;;;;;17.73;9.68;;;;;;;;;;5077290;28;20115;-78
2021/09/12 09:39:04;;;;;;;14.27;9.88;;;;;;;;;;5076013;28;20042;-76
2021/09/12 09:41:34;;;;;;;15.50;9.50;;;;;;;;;;5074562;28;20024;-88
2021/09/12 09:44:01;;;;;;;17.33;10.90;;;;;;;;;;5077468;28;20029;-79
2021/09/12 09:46:31;;;;;;;10.90;9.75;;;;;;;;;;5076644;28;20016;-76
2021/09/12 09:48:58;;;;;;;9.68;8.68;;;;;;;;;;5076993;28;20024;-76
2021/09/12 09:51:24;;;;;;;15.43;9.43;;;;;;;;;;5075720;28;20021;-76
2021/09/12 09:53:50;;;;;;;14.07;8.88;;;;;;;;;;5077312;28;20162;-84
2021/09/12 09:56:17;;;;;;;12.70;11.50;;;;;;;;;;5072797;28;20049;-80
2021/09/12 09:58:43;;;;;;;13.38;12.18;;;;;;;;;;5073821;28;20080;-83
2021/09/12 10:01:09;;;;;;;10.55;9.38;;;;;;;;;;5074110;28;20159;-83
2021/09/12 10:03:35;;;;;;;13.02;8.73;;;;;;;;;;5074463;28;20028;-81
2021/09/12 10:06:01;;;;;;;18.67;9.82;;;;;;;;;;5074450;28;20023;-83
2021/09/12 10:08:27;;;;;;;22.35;20.10;;;;;;;;;;5074621;28;20108;-78
2021/09/12 10:10:54;;;;;;;11.30;9.93;;;;;;;;;;5075029;28;20378;-80
2021/09/12 10:13:20;;;;;;;22.40;12.38;;;;;;;;;;5074957;28;20466;-83
2021/09/12 10:15:48;;;;;;;12.48;11.05;;;;;;;;;;5074258;28;20116;-78
2021/09/12 10:18:14;;;;;;;20.25;14.27;;;;;;;;;;5074625;28;20445;-82
2021/09/12 10:20:40;;;;;;;31.55;21.85;;;;;;;;;;5074540;28;20466;-83
2021/09/12 10:23:07;;;;;;;14.10;11.77;;;;;;;;;;5074429;28;20028;-86
2021/09/12 10:25:34;;;;;;;23.45;16.55;;;;;;;;;;5074429;28;20029;-81
2021/09/12 10:28:03;;;;;;;33.00;19.40;;;;;;;;;;5074302;28;20111;-82
2021/09/12 10:30:33;;;;;;;33.47;18.95;;;;;;;;;;5074305;28;20385;-79
2021/09/12 10:33:18;;;;;;;32.17;23.85;;;;;;;;;;5074515;28;20032;-81
2021/09/12 10:35:53;;;;;;;31.42;23.23;;;;;;;;;;5073747;28;20066;-78
2021/09/12 10:38:39;;;;;;;37.50;20.98;;;;;;;;;;5074996;28;20040;-80
2021/09/12 10:41:11;;;;;;;26.95;19.50;;;;;;;;;;5059802;28;20039;-83
2021/09/12 10:43:41;;;;;;;35.60;21.38;;;;;;;;;;5073807;28;20366;-82
2021/09/12 10:46:24;;;;;;;24.15;18.15;;;;;;;;;;5074370;28;20343;-82
2021/09/12 10:49:10;;;;;;;22.42;14.65;;;;;;;;;;5074023;28;20033;-82
2021/09/12 10:51:36;;;;;;;22.77;15.70;;;;;;;;;;5053198;28;20029;-79
2021/09/12 10:54:02;;;;;;;32.20;16.10;;;;;;;;;;5057262;28;20021;-81
2021/09/12 10:56:29;;;;;;;24.15;15.27;;;;;;;;;;5054308;28;20056;-82
2021/09/12 10:59:05;;;;;;;24.55;13.93;;;;;;;;;;5052825;28;20037;-83
2021/09/12 11:01:33;;;;;;;28.15;13.98;;;;;;;;;;5051606;28;20029;-74
2021/09/12 11:03:59;;;;;;;15.38;12.98;;;;;;;;;;5052364;28;20017;-76
2021/09/12 11:06:26;;;;;;;17.95;12.27;;;;;;;;;;5052746;28;20414;-76
2021/09/12 11:08:52;;;;;;;17.33;11.65;;;;;;;;;;5052744;28;20029;-76
2021/09/12 11:11:18;;;;;;;26.45;10.30;;;;;;;;;;5052704;28;20063;-75
2021/09/12 11:13:44;;;;;;;16.27;10.13;;;;;;;;;;5067112;28;20500;-74
2021/09/12 11:16:11;;;;;;;14.63;10.23;;;;;;;;;;5073334;28;20025;-74
2021/09/12 11:18:43;;;;;;;14.52;11.00;;;;;;;;;;5073261;28;20116;-75
2021/09/12 11:21:09;;;;;;;14.27;10.27;;;;;;;;;;5072678;28;20036;-75
2021/09/12 11:23:37;;;;;;;20.67;10.73;;;;;;;;;;5071607;28;20017;-75
2021/09/12 11:26:03;;;;;;;15.50;9.88;;;;;;;;;;5072352;28;20024;-73
2021/09/12 11:28:30;;;;;;;17.15;9.18;;;;;;;;;;5078227;28;20428;-76
2021/09/12 11:30:57;;;;;;;12.23;9.30;;;;;;;;;;5076082;28;20070;-74
2021/09/12 11:33:23;;;;;;;16.33;10.48;;;;;;;;;;5080605;28;20064;-73
2021/09/12 11:36:04;;;;;;;12.10;8.88;;;;;;;;;;5079377;28;20028;-74
2021/09/12 11:38:30;;;;;;;10.32;8.95;;;;;;;;;;5079706;28;20032;-76
2021/09/12 11:40:57;;;;;;;9.68;8.68;;;;;;;;;;5079565;28;20531;-75
2021/09/12 11:43:23;;;;;;;15.45;9.65;;;;;;;;;;5079584;28;20047;-79
2021/09/12 11:46:10;;;;;;;15.90;10.30;;;;;;;;;;5079365;28;20087;-75
2021/09/12 11:48:37;;;;;;;9.48;8.45;;;;;;;;;;5064911;28;20028;-76
2021/09/12 11:51:03;;;;;;;12.18;9.30;;;;;;;;;;5080063;28;20029;-75
2021/09/12 11:53:29;;;;;;;11.52;8.80;;;;;;;;;;5078860;28;20533;-73
2021/09/12 11:56:07;;;;;;;12.23;8.93;;;;;;;;;;5063721;28;20049;-75
2021/09/12 11:58:33;;;;;;;10.55;9.45;;;;;;;;;;5059549;28;20028;-76
2021/09/12 12:01:00;;;;;;;11.65;9.32;;;;;;;;;;5059015;28;20490;-75
2021/09/12 12:03:26;;;;;;;15.20;8.57;;;;;;;;;;5055261;28;20071;-75
2021/09/12 12:05:52;;;;;;;10.80;9.07;;;;;;;;;;5058733;28;20025;-76
2021/09/12 12:08:19;;;;;;;20.83;10.75;;;;;;;;;;5060123;28;20025;-77
2021/09/12 12:10:45;;;;;;;20.23;11.95;;;;;;;;;;5059508;28;20021;-76
2021/09/12 12:13:11;;;;;;;22.13;11.52;;;;;;;;;;5039109;28;20029;-75
2021/09/12 12:15:39;;;;;;;17.90;10.05;;;;;;;;;;5039349;28;20033;-75
2021/09/12 12:18:09;;;;;;;21.73;11.90;;;;;;;;;;5043040;28;20037;-75
2021/09/12 12:20:35;;;;;;;22.92;10.07;;;;;;;;;;5040176;28;20024;-77
2021/09/12 12:23:21;;;;;;;17.60;11.50;;;;;;;;;;5058764;28;20024;-77
2021/09/12 12:25:47;;;;;;;15.68;9.93;;;;;;;;;;5058208;28;20470;-77
2021/09/12 12:28:15;;;;;;;16.33;10.07;;;;;;;;;;5058781;28;20036;-76
2021/09/12 12:30:41;;;;;;;17.85;9.43;;;;;;;;;;5060697;28;20029;-76
2021/09/12 12:33:07;;;;;;;21.92;9.75;;;;;;;;;;5058286;28;20024;-77
2021/09/12 12:35:33;;;;;;;16.23;10.02;;;;;;;;;;5059879;28;20142;-81
2021/09/12 12:37:59;;;;;;;18.85;9.80;;;;;;;;;;5057527;28;20430;-79
2021/09/12 12:40:25;;;;;;;12.05;8.70;;;;;;;;;;5056121;28;20048;-77
2021/09/12 12:43:00;;;;;;;18.38;9.27;;;;;;;;;;5054023;28;20029;-76
2021/09/12 12:45:26;;;;;;;10.20;8.35;;;;;;;;;;5075977;28;20163;-77
2021/09/12 12:47:53;;;;;;;17.67;10.30;;;;;;;;;;5075410;28;20089;-78
2021/09/12 12:50:35;;;;;;;22.05;10.80;;;;;;;;;;5075520;28;20111;-78
2021/09/12 12:53:23;;;;;;;17.30;11.30;;;;;;;;;;5075392;28;20024;-77
2021/09/12 12:55:53;;;;;;;12.77;10.13;;;;;;;;;;5061059;28;20047;-82
2021/09/12 12:58:19;;;;;;;11.98;8.60;;;;;;;;;;5075518;28;20068;-79
2021/09/12 13:00:46;;;;;;;14.15;9.52;;;;;;;;;;5076037;28;20478;-77
2021/09/12 13:03:12;;;;;;;15.45;8.40;;;;;;;;;;5075638;28;20024;-75
2021/09/12 13:05:38;;;;;;;12.63;9.68;;;;;;;;;;5075101;28;20021;-78
2021/09/12 13:08:06;;;;;;;14.25;8.98;;;;;;;;;;5074664;28;20029;-81
2021/09/12 13:10:34;;;;;;;17.08;9.00;;;;;;;;;;5054886;28;20123;-77
2021/09/12 13:13:00;;;;;;;10.07;7.97;;;;;;;;;;5058013;28;20107;-78
2021/09/12 13:15:26;;;;;;;10.07;7.43;;;;;;;;;;5056916;28;20371;-78
2021/09/12 13:17:52;;;;;;;11.25;7.22;;;;;;;;;;5055251;28;20025;-77
2021/09/12 13:20:18;;;;;;;11.40;7.80;;;;;;;;;;5056321;28;20491;-76
2021/09/12 13:22:44;;;;;;;10.48;8.18;;;;;;;;;;5057967;28;20064;-80
2021/09/12 13:25:11;;;;;;;7.38;6.70;;;;;;;;;;5056225;28;20025;-74
2021/09/12 13:27:37;;;;;;;11.40;7.55;;;;;;;;;;5055727;28;20029;-75
2021/09/12 13:30:03;;;;;;;11.02;8.88;;;;;;;;;;5054716;28;20485;-73
2021/09/12 13:32:29;;;;;;;13.48;8.27;;;;;;;;;;5054976;28;20032;-77
2021/09/12 13:34:56;;;;;;;13.63;7.55;;;;;;;;;;5055312;28;20482;-76
2021/09/12 13:37:22;;;;;;;8.05;7.22;;;;;;;;;;5057097;28;20033;-76
2021/09/12 13:39:48;;;;;;;24.15;8.68;;;;;;;;;;5056420;28;20035;-76
2021/09/12 13:42:14;;;;;;;12.45;8.40;;;;;;;;;;5056223;28;20025;-76
2021/09/12 13:44:40;;;;;;;9.02;7.68;;;;;;;;;;5056361;28;20052;-77
2021/09/12 13:47:06;;;;;;;12.27;8.02;;;;;;;;;;5056710;28;20437;-77
2021/09/12 13:49:32;;;;;;;10.85;7.03;;;;;;;;;;5055681;28;20494;-77
2021/09/12 13:51:58;;;;;;;13.38;7.88;;;;;;;;;;5055860;28;20132;-76
2021/09/12 13:54:24;;;;;;;11.90;8.35;;;;;;;;;;5055754;28;20017;-75
2021/09/12 13:56:50;;;;;;;18.33;8.55;;;;;;;;;;5055521;28;20041;-75
2021/09/12 13:59:16;;;;;;;9.63;8.25;;;;;;;;;;5056248;28;20368;-81
2021/09/12 14:01:42;;;;;;;13.20;8.02;;;;;;;;;;5055784;28;20029;-74
2021/09/12 14:04:09;;;;;;;16.50;8.18;;;;;;;;;;5051894;28;20540;-76
2021/09/12 14:06:35;;;;;;;10.15;8.27;;;;;;;;;;5055129;28;20056;-83
2021/09/12 14:09:01;;;;;;;9.20;8.10;;;;;;;;;;5054395;28;20386;-77
2021/09/12 14:11:27;;;;;;;9.15;7.78;;;;;;;;;;5054724;28;20025;-81
2021/09/12 14:13:53;;;;;;;10.88;8.20;;;;;;;;;;5056559;28;20121;-85
2021/09/12 14:16:19;;;;;;;10.52;7.97;;;;;;;;;;5056554;28;20021;-79
2021/09/12 14:18:45;;;;;;;8.23;7.32;;;;;;;;;;5052774;28;20047;-80